createdAt,value
2024-02-11T00:11:25.983Z,36.69
2024-02-11T00:26:27.868Z,37.26
2024-02-11T00:41:29.815Z,38.30
2024-02-11T00:56:32.384Z,38.97
2024-02-11T01:11:34.176Z,38.53
2024-02-11T01:26:38.176Z,39.32
2024-02-11T01:41:40.423Z,39.96
2024-02-11T01:56:42.689Z,42.30
2024-02-11T02:11:44.583Z,41.27
2024-02-11T02:26:47.931Z,39.88
2024-02-11T02:41:49.747Z,40.63
2024-02-11T02:56:51.506Z,40.59
2024-02-11T03:11:53.428Z,39.00
2024-02-11T03:26:55.167Z,39.40
2024-02-11T03:41:56.890Z,38.65
2024-02-11T03:56:58.588Z,38.74
2024-02-11T04:12:01.018Z,39.42
2024-02-11T04:27:04.216Z,39.85
2024-02-11T04:42:06.642Z,40.13
2024-02-11T04:57:08.434Z,40.29
2024-02-11T05:12:10.980Z,40.58
2024-02-11T05:27:14.537Z,40.24
2024-02-11T05:42:16.339Z,40.01
2024-02-11T05:57:18.481Z,40.58
2024-02-11T06:12:20.233Z,40.28
2024-02-11T06:27:22.157Z,40.99
2024-02-11T06:42:27.495Z,41.96
2024-02-11T06:57:30.702Z,42.24
2024-02-11T07:12:32.612Z,42.74
2024-02-11T07:27:34.965Z,42.61
2024-02-11T07:42:38.601Z,42.26
2024-02-11T07:57:40.697Z,42.60
2024-02-11T08:12:42.461Z,44.24
2024-02-11T08:27:45.525Z,43.02
2024-02-11T08:42:47.315Z,43.79
2024-02-11T08:57:49.605Z,43.59
2024-02-11T09:12:51.340Z,43.41
2024-02-11T09:27:53.031Z,45.06
2024-02-11T09:42:58.458Z,45.97
2024-02-11T09:58:00.236Z,45.96
2024-02-11T10:13:04.227Z,45.90
2024-02-11T10:28:07.726Z,45.17
2024-02-11T10:43:10.981Z,45.30
2024-02-11T10:58:17.498Z,45.01
2024-02-11T11:13:27.776Z,44.03
2024-02-11T11:28:32.907Z,44.18
2024-02-11T11:43:34.741Z,45.19
2024-02-11T11:58:36.872Z,44.66
2024-02-11T12:13:40.705Z,46.54
2024-02-11T12:28:42.876Z,47.50
2024-02-11T12:43:45.932Z,46.23
2024-02-11T12:58:50.334Z,47.84
2024-02-11T13:13:53.313Z,45.33
2024-02-11T13:28:55.249Z,45.14
2024-02-11T13:43:56.999Z,45.43
2024-02-11T13:58:58.819Z,45.48
2024-02-11T14:14:01.330Z,46.49
2024-02-11T14:29:03.140Z,46.79
2024-02-11T14:44:06.606Z,45.85
2024-02-11T14:59:08.527Z,47.20
2024-02-11T15:14:10.676Z,47.93
2024-02-11T15:29:13.540Z,48.73
2024-02-11T15:44:16.326Z,50.32
2024-02-11T15:59:18.468Z,50.03
2024-02-11T16:14:23.981Z,51.06
2024-02-11T16:29:26.282Z,53.37
2024-02-11T16:44:28.659Z,54.07
2024-02-11T16:59:30.656Z,55.31
2024-02-11T17:14:33.499Z,57.04
2024-02-11T17:29:39.266Z,62.81
2024-02-11T17:44:44.859Z,88.60
2024-02-11T17:59:47.385Z,100.00
2024-02-11T18:14:50.141Z,100.00
2024-02-11T18:29:52.039Z,100.00
2024-02-11T18:44:55.577Z,100.00
2024-02-11T18:59:57.993Z,100.00
2024-02-11T19:14:59.908Z,100.00
2024-02-11T19:30:02.939Z,100.00
2024-02-11T19:45:07.801Z,100.00
2024-02-11T20:00:13.889Z,100.00
2024-02-11T20:15:19.166Z,100.00
2024-02-11T20:30:21.179Z,100.00
2024-02-11T20:45:22.942Z,100.00
2024-02-11T21:00:25.460Z,100.00
2024-02-11T21:15:27.400Z,100.00
2024-02-11T21:30:30.741Z,100.00
2024-02-11T21:45:32.537Z,100.00
2024-02-11T22:00:34.649Z,100.00
2024-02-11T22:15:36.672Z,100.00
2024-02-11T22:30:39.018Z,100.00
2024-02-11T22:45:40.828Z,100.00
2024-02-11T23:00:46.362Z,100.00
2024-02-11T23:15:52.690Z,100.00
2024-02-11T23:30:54.322Z,100.00
2024-02-11T23:45:56.026Z,100.00
